sensor_id;sensor_type;location;lat;lon;timestamp;pressure;altitude;pressure_sealevel;temperature;humidity
66857;BME280;53766;50.280;19.160;2023-12-20T00:00:37;97918.59;;;17.76;48.33
66857;BME280;53766;50.280;19.160;2023-12-20T00:03:25;97907.31;;;17.74;48.39
66857;BME280;53766;50.280;19.160;2023-12-20T00:05:53;97901.00;;;17.75;48.34
66857;BME280;53766;50.280;19.160;2023-12-20T00:08:20;97911.63;;;17.75;48.33
66857;BME280;53766;50.280;19.160;2023-12-20T00:10:48;97909.78;;;17.75;48.42
66857;BME280;53766;50.280;19.160;2023-12-20T00:13:15;97902.81;;;17.74;48.54
66857;BME280;53766;50.280;19.160;2023-12-20T00:15:42;97895.66;;;17.75;48.38
66857;BME280;53766;50.280;19.160;2023-12-20T00:18:10;97884.16;;;17.74;48.47
66857;BME280;53766;50.280;19.160;2023-12-20T00:20:38;97895.66;;;17.75;48.36
66857;BME280;53766;50.280;19.160;2023-12-20T00:23:05;97898.31;;;17.75;48.49
66857;BME280;53766;50.280;19.160;2023-12-20T00:25:33;97896.69;;;17.74;48.36
66857;BME280;53766;50.280;19.160;2023-12-20T00:28:00;97898.09;;;17.76;48.47
66857;BME280;53766;50.280;19.160;2023-12-20T00:30:28;97876.78;;;17.76;48.40
66857;BME280;53766;50.280;19.160;2023-12-20T00:32:56;97885.00;;;17.75;48.41
66857;BME280;53766;50.280;19.160;2023-12-20T00:35:24;97868.19;;;17.74;48.49
66857;BME280;53766;50.280;19.160;2023-12-20T00:37:51;97861.03;;;17.75;48.45
66857;BME280;53766;50.280;19.160;2023-12-20T00:40:19;97900.56;;;17.78;48.44
66857;BME280;53766;50.280;19.160;2023-12-20T00:42:47;97901.00;;;17.75;48.48
66857;BME280;53766;50.280;19.160;2023-12-20T00:45:15;97894.00;;;17.74;48.45
66857;BME280;53766;50.280;19.160;2023-12-20T00:47:43;97875.16;;;17.75;48.49
66857;BME280;53766;50.280;19.160;2023-12-20T00:50:11;97885.81;;;17.75;48.44
66857;BME280;53766;50.280;19.160;2023-12-20T00:52:38;97882.56;;;17.73;48.47
66857;BME280;53766;50.280;19.160;2023-12-20T00:55:06;97878.03;;;17.74;48.42
66857;BME280;53766;50.280;19.160;2023-12-20T00:57:34;97877.03;;;17.75;48.44
66857;BME280;53766;50.280;19.160;2023-12-20T01:00:02;97874.34;;;17.75;48.35
66857;BME280;53766;50.280;19.160;2023-12-20T01:02:29;97879.69;;;17.75;48.55
66857;BME280;53766;50.280;19.160;2023-12-20T01:04:57;97851.41;;;17.74;48.55
66857;BME280;53766;50.280;19.160;2023-12-20T01:07:24;97831.75;;;17.75;48.50
66857;BME280;53766;50.280;19.160;2023-12-20T01:09:52;97850.16;;;17.76;48.43
66857;BME280;53766;50.280;19.160;2023-12-20T01:12:19;97831.75;;;17.75;48.39
66857;BME280;53766;50.280;19.160;2023-12-20T01:14:47;97827.00;;;17.77;48.51
66857;BME280;53766;50.280;19.160;2023-12-20T01:17:15;97823.50;;;17.76;48.42
66857;BME280;53766;50.280;19.160;2023-12-20T01:19:42;97834.97;;;17.77;48.48
66857;BME280;53766;50.280;19.160;2023-12-20T01:22:10;97819.00;;;17.77;48.39
66857;BME280;53766;50.280;19.160;2023-12-20T01:24:37;97832.31;;;17.77;48.44
66857;BME280;53766;50.280;19.160;2023-12-20T01:27:05;97813.66;;;17.77;48.48
66857;BME280;53766;50.280;19.160;2023-12-20T01:29:32;97789.94;;;17.75;48.53
66857;BME280;53766;50.280;19.160;2023-12-20T01:32:00;97795.25;;;17.75;48.49
66857;BME280;53766;50.280;19.160;2023-12-20T01:34:27;97807.53;;;17.76;48.39
66857;BME280;53766;50.280;19.160;2023-12-20T01:36:55;97806.72;;;17.76;48.42
66857;BME280;53766;50.280;19.160;2023-12-20T01:39:22;97797.69;;;17.77;48.45
66857;BME280;53766;50.280;19.160;2023-12-20T01:41:56;97787.03;;;17.77;48.44
66857;BME280;53766;50.280;19.160;2023-12-20T01:44:23;97784.38;;;17.77;48.42
66857;BME280;53766;50.280;19.160;2023-12-20T01:46:51;97772.69;;;17.78;48.46
66857;BME280;53766;50.280;19.160;2023-12-20T01:49:20;97803.03;;;17.77;48.42
66857;BME280;53766;50.280;19.160;2023-12-20T01:51:48;97813.66;;;17.77;48.46
66857;BME280;53766;50.280;19.160;2023-12-20T01:54:17;97805.69;;;17.77;48.57
66857;BME280;53766;50.280;19.160;2023-12-20T01:56:45;97800.34;;;17.77;48.48
66857;BME280;53766;50.280;19.160;2023-12-20T01:59:13;97819.00;;;17.77;48.52
66857;BME280;53766;50.280;19.160;2023-12-20T02:01:40;97808.59;;;17.75;48.48
66857;BME280;53766;50.280;19.160;2023-12-20T02:04:08;97799.78;;;17.75;48.46
66857;BME280;53766;50.280;19.160;2023-12-20T02:06:38;97781.13;;;17.75;48.45
66857;BME280;53766;50.280;19.160;2023-12-20T02:09:07;97779.28;;;17.75;48.49
66857;BME280;53766;50.280;19.160;2023-12-20T02:11:35;97778.47;;;17.75;48.51
66857;BME280;53766;50.280;19.160;2023-12-20T02:14:03;97783.81;;;17.75;48.45
66857;BME280;53766;50.280;19.160;2023-12-20T02:16:31;97769.66;;;17.74;48.53
66857;BME280;53766;50.280;19.160;2023-12-20T02:18:59;97780.31;;;17.74;48.39
66857;BME280;53766;50.280;19.160;2023-12-20T02:21:32;97766.16;;;17.74;48.45
66857;BME280;53766;50.280;19.160;2023-12-20T02:24:01;97789.13;;;17.75;48.46
66857;BME280;53766;50.280;19.160;2023-12-20T02:26:29;97785.63;;;17.74;48.48
66857;BME280;53766;50.280;19.160;2023-12-20T02:28:56;97779.28;;;17.75;48.34
66857;BME280;53766;50.280;19.160;2023-12-20T02:31:24;97770.50;;;17.75;48.59
66857;BME280;53766;50.280;19.160;2023-12-20T02:33:52;97776.81;;;17.74;48.44
66857;BME280;53766;50.280;19.160;2023-12-20T02:36:19;97782.16;;;17.74;48.33
66857;BME280;53766;50.280;19.160;2023-12-20T02:38:47;97765.56;;;17.72;48.43
66857;BME280;53766;50.280;19.160;2023-12-20T02:41:15;97770.91;;;17.72;48.37
66857;BME280;53766;50.280;19.160;2023-12-20T02:43:45;97790.34;;;17.72;48.31
66857;BME280;53766;50.280;19.160;2023-12-20T02:46:14;97784.00;;;17.73;48.38
66857;BME280;53766;50.280;19.160;2023-12-20T02:48:43;97766.16;;;17.74;48.29
66857;BME280;53766;50.280;19.160;2023-12-20T02:51:10;97764.56;;;17.73;48.35
66857;BME280;53766;50.280;19.160;2023-12-20T02:53:38;97775.22;;;17.73;48.28
66857;BME280;53766;50.280;19.160;2023-12-20T02:56:06;97760.03;;;17.73;48.27
66857;BME280;53766;50.280;19.160;2023-12-20T02:58:33;97748.56;;;17.73;48.39
66857;BME280;53766;50.280;19.160;2023-12-20T03:01:01;97744.06;;;17.73;48.31
66857;BME280;53766;50.280;19.160;2023-12-20T03:03:29;97755.53;;;17.74;48.37
66857;BME280;53766;50.280;19.160;2023-12-20T03:05:56;97750.19;;;17.74;48.45
66857;BME280;53766;50.280;19.160;2023-12-20T03:08:24;97751.84;;;17.75;48.34
66857;BME280;53766;50.280;19.160;2023-12-20T03:10:54;97754.72;;;17.73;48.36
66857;BME280;53766;50.280;19.160;2023-12-20T03:13:22;97750.19;;;17.74;48.45
66857;BME280;53766;50.280;19.160;2023-12-20T03:15:49;97756.56;;;17.73;48.40
66857;BME280;53766;50.280;19.160;2023-12-20T03:18:17;97763.50;;;17.74;48.36
66857;BME280;53766;50.280;19.160;2023-12-20T03:20:45;97766.16;;;17.74;48.33
66857;BME280;53766;50.280;19.160;2023-12-20T03:23:15;97760.03;;;17.73;48.44
66857;BME280;53766;50.280;19.160;2023-12-20T03:25:42;97763.50;;;17.74;48.22
66857;BME280;53766;50.280;19.160;2023-12-20T03:28:10;97763.50;;;17.74;48.34
66857;BME280;53766;50.280;19.160;2023-12-20T03:30:37;97758.19;;;17.74;48.31
66857;BME280;53766;50.280;19.160;2023-12-20T03:33:05;97756.56;;;17.73;48.39
66857;BME280;53766;50.280;19.160;2023-12-20T03:35:33;97751.25;;;17.73;48.42
66857;BME280;53766;50.280;19.160;2023-12-20T03:38:00;97756.34;;;17.74;48.30
66857;BME280;53766;50.280;19.160;2023-12-20T03:40:28;97760.84;;;17.74;48.43
66857;BME280;53766;50.280;19.160;2023-12-20T03:42:55;97762.91;;;17.72;48.43
66857;BME280;53766;50.280;19.160;2023-12-20T03:45:23;97753.91;;;17.73;48.42
66857;BME280;53766;50.280;19.160;2023-12-20T03:47:50;97757.59;;;17.72;48.32
66857;BME280;53766;50.280;19.160;2023-12-20T03:50:22;97759.44;;;17.71;48.27
66857;BME280;53766;50.280;19.160;2023-12-20T03:52:50;97762.91;;;17.72;48.47
66857;BME280;53766;50.280;19.160;2023-12-20T03:55:18;97762.91;;;17.72;48.45
66857;BME280;53766;50.280;19.160;2023-12-20T03:57:46;97759.22;;;17.73;48.47
66857;BME280;53766;50.280;19.160;2023-12-20T04:00:14;97764.56;;;17.73;48.35
66857;BME280;53766;50.280;19.160;2023-12-20T04:02:42;97761.91;;;17.73;48.44
66857;BME280;53766;50.280;19.160;2023-12-20T04:05:10;97769.88;;;17.73;48.40
66857;BME280;53766;50.280;19.160;2023-12-20T04:07:38;97769.88;;;17.73;48.39
66857;BME280;53766;50.280;19.160;2023-12-20T04:10:06;97775.22;;;17.73;48.53
66857;BME280;53766;50.280;19.160;2023-12-20T04:12:34;97769.03;;;17.72;48.35
66857;BME280;53766;50.280;19.160;2023-12-20T04:15:02;97773.56;;;17.72;48.40
66857;BME280;53766;50.280;19.160;2023-12-20T04:17:37;97775.22;;;17.73;48.50
66857;BME280;53766;50.280;19.160;2023-12-20T04:20:05;97780.53;;;17.73;48.48
66857;BME280;53766;50.280;19.160;2023-12-20T04:22:33;97769.03;;;17.72;48.39
66857;BME280;53766;50.280;19.160;2023-12-20T04:25:00;97776.22;;;17.72;48.33
66857;BME280;53766;50.280;19.160;2023-12-20T04:27:28;97771.94;;;17.71;48.34
66857;BME280;53766;50.280;19.160;2023-12-20T04:29:56;97777.28;;;17.71;48.36
66857;BME280;53766;50.280;19.160;2023-12-20T04:32:23;97785.88;;;17.73;48.36
66857;BME280;53766;50.280;19.160;2023-12-20T04:34:51;97776.03;;;17.73;48.42
66857;BME280;53766;50.280;19.160;2023-12-20T04:37:18;97771.28;;;17.75;48.25
66857;BME280;53766;50.280;19.160;2023-12-20T04:39:46;97767.81;;;17.75;48.29
66857;BME280;53766;50.280;19.160;2023-12-20T04:42:13;97773.16;;;17.75;48.21
66857;BME280;53766;50.280;19.160;2023-12-20T04:44:41;97767.81;;;17.75;48.12
66857;BME280;53766;50.280;19.160;2023-12-20T04:47:08;97763.31;;;17.75;48.03
66857;BME280;53766;50.280;19.160;2023-12-20T04:49:36;97756.94;;;17.76;48.20
66857;BME280;53766;50.280;19.160;2023-12-20T04:52:04;97760.41;;;17.77;48.21
66857;BME280;53766;50.280;19.160;2023-12-20T04:54:33;97763.06;;;17.77;47.83
66857;BME280;53766;50.280;19.160;2023-12-20T04:57:00;97757.75;;;17.77;48.08
66857;BME280;53766;50.280;19.160;2023-12-20T04:59:28;97761.44;;;17.76;47.89
66857;BME280;53766;50.280;19.160;2023-12-20T05:01:56;97756.72;;;17.78;47.99
66857;BME280;53766;50.280;19.160;2023-12-20T05:04:25;97751.41;;;17.78;48.05
66857;BME280;53766;50.280;19.160;2023-12-20T05:06:52;97753.25;;;17.77;48.06
66857;BME280;53766;50.280;19.160;2023-12-20T05:09:20;97745.25;;;17.77;48.05
66857;BME280;53766;50.280;19.160;2023-12-20T05:11:47;97741.75;;;17.77;47.93
66857;BME280;53766;50.280;19.160;2023-12-20T05:14:15;97737.47;;;17.76;47.94
66857;BME280;53766;50.280;19.160;2023-12-20T05:16:42;97734.59;;;17.77;47.96
66857;BME280;53766;50.280;19.160;2023-12-20T05:19:10;97746.06;;;17.78;47.97
66857;BME280;53766;50.280;19.160;2023-12-20T05:21:38;97738.09;;;17.78;48.07
66857;BME280;53766;50.280;19.160;2023-12-20T05:24:05;97745.88;;;17.79;48.09
66857;BME280;53766;50.280;19.160;2023-12-20T05:26:33;97740.75;;;17.78;48.23
66857;BME280;53766;50.280;19.160;2023-12-20T05:29:00;97746.50;;;17.75;48.34
66857;BME280;53766;50.280;19.160;2023-12-20T05:31:27;97746.50;;;17.75;48.45
66857;BME280;53766;50.280;19.160;2023-12-20T05:33:55;97750.19;;;17.74;48.56
66857;BME280;53766;50.280;19.160;2023-12-20T05:36:23;97751.84;;;17.75;48.92
66857;BME280;53766;50.280;19.160;2023-12-20T05:38:50;97750.19;;;17.74;48.93
66857;BME280;53766;50.280;19.160;2023-12-20T05:41:18;97747.31;;;17.75;49.17
66857;BME280;53766;50.280;19.160;2023-12-20T05:43:45;97741.19;;;17.75;49.11
66857;BME280;53766;50.280;19.160;2023-12-20T05:46:13;97746.50;;;17.75;49.33
66857;BME280;53766;50.280;19.160;2023-12-20T05:48:40;97744.41;;;17.77;49.25
66857;BME280;53766;50.280;19.160;2023-12-20T05:51:11;97744.66;;;17.75;49.39
66857;BME280;53766;50.280;19.160;2023-12-20T05:53:39;97746.50;;;17.75;49.47
66857;BME280;53766;50.280;19.160;2023-12-20T05:56:07;97744.88;;;17.74;49.41
66857;BME280;53766;50.280;19.160;2023-12-20T05:58:34;97744.06;;;17.73;49.60
66857;BME280;53766;50.280;19.160;2023-12-20T06:01:04;97737.94;;;17.73;49.56
66857;BME280;53766;50.280;19.160;2023-12-20T06:03:32;97737.09;;;17.72;49.63
66857;BME280;53766;50.280;19.160;2023-12-20T06:06:05;97746.94;;;17.72;49.63
66857;BME280;53766;50.280;19.160;2023-12-20T06:08:43;97745.31;;;17.71;49.72
66857;BME280;53766;50.280;19.160;2023-12-20T06:11:11;97741.59;;;17.72;49.52
66857;BME280;53766;50.280;19.160;2023-12-20T06:13:39;97750.63;;;17.71;49.53
66857;BME280;53766;50.280;19.160;2023-12-20T06:16:07;97742.84;;;17.69;49.57
66857;BME280;53766;50.280;19.160;2023-12-20T06:18:35;97742.03;;;17.68;49.65
66857;BME280;53766;50.280;19.160;2023-12-20T06:21:04;97746.53;;;17.68;49.71
66857;BME280;53766;50.280;19.160;2023-12-20T06:23:31;97749.19;;;17.68;49.56
66857;BME280;53766;50.280;19.160;2023-12-20T06:25:59;97754.31;;;17.69;49.66
66857;BME280;53766;50.280;19.160;2023-12-20T06:28:27;97746.31;;;17.69;49.66
66857;BME280;53766;50.280;19.160;2023-12-20T06:30:55;97750.41;;;17.72;49.99
66857;BME280;53766;50.280;19.160;2023-12-20T06:33:24;97753.06;;;17.72;49.78
66857;BME280;53766;50.280;19.160;2023-12-20T06:35:52;97751.84;;;17.75;49.63
66857;BME280;53766;50.280;19.160;2023-12-20T06:38:20;97751.84;;;17.75;49.74
66857;BME280;53766;50.280;19.160;2023-12-20T06:40:48;97755.53;;;17.74;49.61
66857;BME280;53766;50.280;19.160;2023-12-20T06:43:15;97755.53;;;17.74;49.74
66857;BME280;53766;50.280;19.160;2023-12-20T06:46:03;97760.03;;;17.73;49.75
66857;BME280;53766;50.280;19.160;2023-12-20T06:48:30;97756.56;;;17.73;49.73
66857;BME280;53766;50.280;19.160;2023-12-20T06:51:00;97762.09;;;17.71;49.77
66857;BME280;53766;50.280;19.160;2023-12-20T06:53:29;97764.56;;;17.73;50.04
66857;BME280;53766;50.280;19.160;2023-12-20T06:55:57;97769.03;;;17.72;50.01
66857;BME280;53766;50.280;19.160;2023-12-20T06:58:24;97772.75;;;17.71;49.99
66857;BME280;53766;50.280;19.160;2023-12-20T07:00:52;97765.56;;;17.72;50.11
66857;BME280;53766;50.280;19.160;2023-12-20T07:03:20;97766.63;;;17.71;50.03
66857;BME280;53766;50.280;19.160;2023-12-20T07:05:48;97774.38;;;17.72;50.17
66857;BME280;53766;50.280;19.160;2023-12-20T07:08:15;97778.88;;;17.72;50.11
66857;BME280;53766;50.280;19.160;2023-12-20T07:10:43;97769.28;;;17.71;50.05
66857;BME280;53766;50.280;19.160;2023-12-20T07:13:10;97784.41;;;17.70;50.18
66857;BME280;53766;50.280;19.160;2023-12-20T07:15:40;97770.28;;;17.69;50.12
66857;BME280;53766;50.280;19.160;2023-12-20T07:18:08;97778.28;;;17.69;50.13
66857;BME280;53766;50.280;19.160;2023-12-20T07:20:36;97771.94;;;17.71;50.25
66857;BME280;53766;50.280;19.160;2023-12-20T07:23:03;97772.97;;;17.69;50.31
66857;BME280;53766;50.280;19.160;2023-12-20T07:25:31;97771.94;;;17.71;50.18
66857;BME280;53766;50.280;19.160;2023-12-20T07:28:00;97775.63;;;17.69;49.96
66857;BME280;53766;50.280;19.160;2023-12-20T07:30:28;97778.28;;;17.69;50.23
66857;BME280;53766;50.280;19.160;2023-12-20T07:32:55;97781.75;;;17.70;50.27
66857;BME280;53766;50.280;19.160;2023-12-20T07:35:23;97780.94;;;17.69;50.21
66857;BME280;53766;50.280;19.160;2023-12-20T07:37:52;97780.13;;;17.69;50.16
66857;BME280;53766;50.280;19.160;2023-12-20T07:40:20;97791.59;;;17.69;50.22
66857;BME280;53766;50.280;19.160;2023-12-20T07:42:48;97785.47;;;17.69;50.17
66857;BME280;53766;50.280;19.160;2023-12-20T07:45:15;97784.66;;;17.68;50.11
66857;BME280;53766;50.280;19.160;2023-12-20T07:47:43;97787.31;;;17.68;50.12
66857;BME280;53766;50.280;19.160;2023-12-20T07:50:11;97788.94;;;17.69;50.13
66857;BME280;53766;50.280;19.160;2023-12-20T07:52:38;97794.25;;;17.69;50.30
66857;BME280;53766;50.280;19.160;2023-12-20T07:55:07;97800.63;;;17.68;50.20
66857;BME280;53766;50.280;19.160;2023-12-20T07:57:34;97800.63;;;17.68;50.25
66857;BME280;53766;50.280;19.160;2023-12-20T08:00:02;97794.06;;;17.71;50.18
66857;BME280;53766;50.280;19.160;2023-12-20T08:02:31;97790.78;;;17.69;50.17
66857;BME280;53766;50.280;19.160;2023-12-20T08:04:59;97796.13;;;17.69;50.15
66857;BME280;53766;50.280;19.160;2023-12-20T08:07:26;97796.13;;;17.69;50.08
66857;BME280;53766;50.280;19.160;2023-12-20T08:09:54;97795.06;;;17.70;50.05
66857;BME280;53766;50.280;19.160;2023-12-20T08:12:23;97791.81;;;17.68;50.15
66857;BME280;53766;50.280;19.160;2023-12-20T08:14:51;97796.94;;;17.69;50.07
66857;BME280;53766;50.280;19.160;2023-12-20T08:17:18;97795.31;;;17.68;50.03
66857;BME280;53766;50.280;19.160;2023-12-20T08:19:46;97800.63;;;17.68;50.10
66857;BME280;53766;50.280;19.160;2023-12-20T08:22:14;97801.44;;;17.69;50.10
66857;BME280;53766;50.280;19.160;2023-12-20T08:24:42;97791.00;;;17.67;49.88
66857;BME280;53766;50.280;19.160;2023-12-20T08:27:09;97787.31;;;17.68;49.98
66857;BME280;53766;50.280;19.160;2023-12-20T08:29:37;97792.66;;;17.68;49.86
66857;BME280;53766;50.280;19.160;2023-12-20T08:32:04;97789.97;;;17.68;50.04
66857;BME280;53766;50.280;19.160;2023-12-20T08:34:32;97788.13;;;17.69;49.94
66857;BME280;53766;50.280;19.160;2023-12-20T08:37:00;97793.66;;;17.67;50.01
66857;BME280;53766;50.280;19.160;2023-12-20T08:39:28;97797.13;;;17.68;49.98
66857;BME280;53766;50.280;19.160;2023-12-20T08:41:57;97797.38;;;17.66;49.95
66857;BME280;53766;50.280;19.160;2023-12-20T08:44:25;97805.34;;;17.66;49.97
66857;BME280;53766;50.280;19.160;2023-12-20T08:46:52;97809.63;;;17.67;49.93
66857;BME280;53766;50.280;19.160;2023-12-20T08:49:20;97803.50;;;17.67;49.92
66857;BME280;53766;50.280;19.160;2023-12-20T08:51:48;97798.97;;;17.67;49.98
66857;BME280;53766;50.280;19.160;2023-12-20T08:54:15;97805.13;;;17.68;49.88
66857;BME280;53766;50.280;19.160;2023-12-20T08:56:44;97809.63;;;17.67;49.80
66857;BME280;53766;50.280;19.160;2023-12-20T08:59:12;97802.47;;;17.68;49.82
66857;BME280;53766;50.280;19.160;2023-12-20T09:01:39;97809.63;;;17.67;49.82
66857;BME280;53766;50.280;19.160;2023-12-20T09:04:07;97804.31;;;17.67;49.71
66857;BME280;53766;50.280;19.160;2023-12-20T09:06:35;97798.97;;;17.67;49.84
66857;BME280;53766;50.280;19.160;2023-12-20T09:09:03;97796.13;;;17.69;49.84
66857;BME280;53766;50.280;19.160;2023-12-20T09:11:30;97799.78;;;17.68;49.71
66857;BME280;53766;50.280;19.160;2023-12-20T09:13:59;97805.97;;;17.68;49.72
66857;BME280;53766;50.280;19.160;2023-12-20T09:16:26;97805.97;;;17.68;49.65
66857;BME280;53766;50.280;19.160;2023-12-20T09:18:54;97791.00;;;17.67;49.81
66857;BME280;53766;50.280;19.160;2023-12-20T09:21:21;97784.66;;;17.68;49.73
66857;BME280;53766;50.280;19.160;2023-12-20T09:23:49;97789.16;;;17.68;49.75
66857;BME280;53766;50.280;19.160;2023-12-20T09:26:17;97788.94;;;17.69;49.74
66857;BME280;53766;50.280;19.160;2023-12-20T09:28:44;97791.59;;;17.69;49.72
66857;BME280;53766;50.280;19.160;2023-12-20T09:31:12;97792.66;;;17.68;49.66
66857;BME280;53766;50.280;19.160;2023-12-20T09:33:40;97789.16;;;17.68;49.63
66857;BME280;53766;50.280;19.160;2023-12-20T09:36:07;97789.38;;;17.66;49.65
66857;BME280;53766;50.280;19.160;2023-12-20T09:38:35;97794.25;;;17.69;49.53
66857;BME280;53766;50.280;19.160;2023-12-20T09:41:02;97791.59;;;17.69;49.53
66857;BME280;53766;50.280;19.160;2023-12-20T09:43:35;97784.66;;;17.68;49.56
66857;BME280;53766;50.280;19.160;2023-12-20T09:46:06;97779.34;;;17.68;49.62
66857;BME280;53766;50.280;19.160;2023-12-20T09:48:38;97771.34;;;17.68;49.66
66857;BME280;53766;50.280;19.160;2023-12-20T09:51:08;97770.28;;;17.69;49.42
66857;BME280;53766;50.280;19.160;2023-12-20T09:53:36;97768.69;;;17.68;49.55
66857;BME280;53766;50.280;19.160;2023-12-20T09:56:05;97768.69;;;17.68;49.48
66857;BME280;53766;50.280;19.160;2023-12-20T09:58:36;97768.69;;;17.68;49.63
66857;BME280;53766;50.280;19.160;2023-12-20T10:01:05;97764.38;;;17.67;49.44
66857;BME280;53766;50.280;19.160;2023-12-20T10:03:34;97768.88;;;17.67;49.58
66857;BME280;53766;50.280;19.160;2023-12-20T10:06:01;97773.16;;;17.68;49.54
66857;BME280;53766;50.280;19.160;2023-12-20T10:08:29;97768.69;;;17.68;49.56
66857;BME280;53766;50.280;19.160;2023-12-20T10:11:00;97764.16;;;17.69;49.44
66857;BME280;53766;50.280;19.160;2023-12-20T10:13:30;97767.03;;;17.67;49.40
66857;BME280;53766;50.280;19.160;2023-12-20T10:15:59;97760.91;;;17.67;49.41
66857;BME280;53766;50.280;19.160;2023-12-20T10:18:29;97768.69;;;17.68;49.52
66857;BME280;53766;50.280;19.160;2023-12-20T10:21:06;97760.09;;;17.66;49.41
66857;BME280;53766;50.280;19.160;2023-12-20T10:23:34;97764.38;;;17.67;49.34
66857;BME280;53766;50.280;19.160;2023-12-20T10:26:02;97754.75;;;17.66;49.35
66857;BME280;53766;50.280;19.160;2023-12-20T10:28:34;97765.41;;;17.66;49.32
66857;BME280;53766;50.280;19.160;2023-12-20T10:31:02;97762.75;;;17.66;49.22
66857;BME280;53766;50.280;19.160;2023-12-20T10:33:31;97764.59;;;17.66;49.34
66857;BME280;53766;50.280;19.160;2023-12-20T10:36:02;97765.41;;;17.66;49.30
66857;BME280;53766;50.280;19.160;2023-12-20T10:38:31;97766.44;;;17.65;49.38
66857;BME280;53766;50.280;19.160;2023-12-20T10:40:58;97761.09;;;17.65;49.26
66857;BME280;53766;50.280;19.160;2023-12-20T10:43:28;97763.75;;;17.65;49.30
66857;BME280;53766;50.280;19.160;2023-12-20T10:45:57;97757.44;;;17.66;49.35
66857;BME280;53766;50.280;19.160;2023-12-20T10:48:24;97754.75;;;17.66;49.19
66857;BME280;53766;50.280;19.160;2023-12-20T10:50:57;97752.31;;;17.65;49.26
66857;BME280;53766;50.280;19.160;2023-12-20T10:53:26;97755.78;;;17.65;49.26
66857;BME280;53766;50.280;19.160;2023-12-20T10:55:55;97758.44;;;17.65;49.26
66857;BME280;53766;50.280;19.160;2023-12-20T10:58:26;97763.75;;;17.65;49.14
66857;BME280;53766;50.280;19.160;2023-12-20T11:01:00;97758.44;;;17.65;49.21
66857;BME280;53766;50.280;19.160;2023-12-20T11:03:35;97755.78;;;17.65;49.22
66857;BME280;53766;50.280;19.160;2023-12-20T11:06:15;97755.78;;;17.65;49.17
66857;BME280;53766;50.280;19.160;2023-12-20T11:11:22;97747.78;;;17.65;49.13
66857;BME280;53766;50.280;19.160;2023-12-20T11:13:58;97747.78;;;17.65;49.22
66857;BME280;53766;50.280;19.160;2023-12-20T11:16:29;97741.66;;;17.65;49.13
66857;BME280;53766;50.280;19.160;2023-12-20T11:19:11;97746.97;;;17.65;49.09
66857;BME280;53766;50.280;19.160;2023-12-20T11:21:41;97737.13;;;17.65;49.12
66857;BME280;53766;50.280;19.160;2023-12-20T11:24:09;97731.81;;;17.65;49.13
66857;BME280;53766;50.280;19.160;2023-12-20T11:26:37;97733.66;;;17.65;49.13
66857;BME280;53766;50.280;19.160;2023-12-20T11:29:30;97724.88;;;17.64;48.97
66857;BME280;53766;50.280;19.160;2023-12-20T11:32:00;97728.34;;;17.65;49.07
66857;BME280;53766;50.280;19.160;2023-12-20T11:34:31;97723.00;;;17.65;49.13
66857;BME280;53766;50.280;19.160;2023-12-20T11:37:00;97727.31;;;17.66;48.95
66857;BME280;53766;50.280;19.160;2023-12-20T11:39:30;97735.53;;;17.64;48.96
66857;BME280;53766;50.280;19.160;2023-12-20T11:42:04;97728.53;;;17.63;48.95
66857;BME280;53766;50.280;19.160;2023-12-20T11:44:32;97724.88;;;17.64;48.92
66857;BME280;53766;50.280;19.160;2023-12-20T11:47:00;97724.06;;;17.64;48.96
66857;BME280;53766;50.280;19.160;2023-12-20T11:49:28;97726.72;;;17.64;48.91
66857;BME280;53766;50.280;19.160;2023-12-20T11:51:58;97717.09;;;17.63;49.05
66857;BME280;53766;50.280;19.160;2023-12-20T11:54:27;97724.88;;;17.64;48.93
66857;BME280;53766;50.280;19.160;2023-12-20T11:56:57;97722.19;;;17.64;48.97
66857;BME280;53766;50.280;19.160;2023-12-20T11:59:25;97722.19;;;17.64;48.85
66857;BME280;53766;50.280;19.160;2023-12-20T12:01:52;97724.88;;;17.64;48.84
66857;BME280;53766;50.280;19.160;2023-12-20T12:04:22;97724.06;;;17.64;48.86
66857;BME280;53766;50.280;19.160;2023-12-20T12:06:50;97722.19;;;17.64;48.93
66857;BME280;53766;50.280;19.160;2023-12-20T12:09:17;97727.53;;;17.64;48.84
66857;BME280;53766;50.280;19.160;2023-12-20T12:11:45;97723.22;;;17.63;48.93
66857;BME280;53766;50.280;19.160;2023-12-20T12:14:13;97719.75;;;17.63;48.88
66857;BME280;53766;50.280;19.160;2023-12-20T12:16:43;97711.75;;;17.63;48.89
66857;BME280;53766;50.280;19.160;2023-12-20T12:19:24;97713.41;;;17.64;48.77
66857;BME280;53766;50.280;19.160;2023-12-20T12:22:08;97716.06;;;17.64;48.81
66857;BME280;53766;50.280;19.160;2023-12-20T12:24:43;97717.09;;;17.63;48.78
66857;BME280;53766;50.280;19.160;2023-12-20T12:27:12;97722.41;;;17.63;48.75
66857;BME280;53766;50.280;19.160;2023-12-20T12:29:40;97725.06;;;17.63;48.77
66857;BME280;53766;50.280;19.160;2023-12-20T12:32:08;97726.94;;;17.62;48.77
66857;BME280;53766;50.280;19.160;2023-12-20T12:34:37;97733.88;;;17.63;48.79
66857;BME280;53766;50.280;19.160;2023-12-20T12:37:05;97731.22;;;17.63;48.78
66857;BME280;53766;50.280;19.160;2023-12-20T12:39:32;97717.09;;;17.63;48.69
66857;BME280;53766;50.280;19.160;2023-12-20T12:42:00;97716.06;;;17.64;48.59
66857;BME280;53766;50.280;19.160;2023-12-20T12:44:27;97702.75;;;17.64;48.67
66857;BME280;53766;50.280;19.160;2023-12-20T12:46:55;97707.25;;;17.63;48.68
66857;BME280;53766;50.280;19.160;2023-12-20T12:49:23;97709.91;;;17.63;48.71
66857;BME280;53766;50.280;19.160;2023-12-20T12:51:51;97718.72;;;17.64;48.64
66857;BME280;53766;50.280;19.160;2023-12-20T12:54:19;97720.56;;;17.63;48.68
66857;BME280;53766;50.280;19.160;2023-12-20T12:56:46;97711.75;;;17.63;48.76
66857;BME280;53766;50.280;19.160;2023-12-20T12:59:14;97717.91;;;17.63;48.61